Time;durP1;ratioP1;P1;durP2;ratioP2;P2;SDS_P1;SDS_P2;PMS_P1;PMS_P2;Temp;Humidity;BMP_temperature;BMP_pressure;BME280_temperature;BME280_humidity;BME280_pressure;Samples;Min_cycle;Max_cycle;Signal;HPM_P1;HPM_P2
2022/03/07 00:00:25;;;;;;;4.22;2.45;;;;;;;;;;5070611;28;20404;-69
2022/03/07 00:02:51;;;;;;;6.32;2.40;;;;;;;;;;5071772;28;20027;-69
2022/03/07 00:05:19;;;;;;;7.38;2.40;;;;;;;;;;5066565;28;20487;-70
2022/03/07 00:07:45;;;;;;;5.63;2.47;;;;;;;;;;5066999;28;20024;-69
2022/03/07 00:10:12;;;;;;;3.20;1.95;;;;;;;;;;5066580;28;20043;-71
2022/03/07 00:12:39;;;;;;;11.50;2.30;;;;;;;;;;5066112;28;20056;-70
2022/03/07 00:15:06;;;;;;;4.10;2.03;;;;;;;;;;5071202;28;20033;-68
2022/03/07 00:17:32;;;;;;;5.63;1.75;;;;;;;;;;5071438;28;20020;-69
2022/03/07 00:19:59;;;;;;;11.07;2.45;;;;;;;;;;5071593;28;20021;-69
2022/03/07 00:22:26;;;;;;;9.85;2.20;;;;;;;;;;5071384;28;20029;-69
2022/03/07 00:24:52;;;;;;;8.15;2.88;;;;;;;;;;5071245;28;20029;-69
2022/03/07 00:27:19;;;;;;;7.57;3.22;;;;;;;;;;5066611;28;20534;-69
2022/03/07 00:29:46;;;;;;;5.85;3.15;;;;;;;;;;5066539;28;20384;-69
2022/03/07 00:32:12;;;;;;;12.67;3.27;;;;;;;;;;5066588;28;20033;-69
2022/03/07 00:34:39;;;;;;;6.30;2.80;;;;;;;;;;5063978;28;20044;-69
2022/03/07 00:37:06;;;;;;;11.70;2.97;;;;;;;;;;5070404;28;20357;-69
2022/03/07 00:39:32;;;;;;;6.57;3.13;;;;;;;;;;5071601;28;20028;-70
2022/03/07 00:41:59;;;;;;;6.93;2.70;;;;;;;;;;5071228;28;20033;-69
2022/03/07 00:44:26;;;;;;;5.93;3.10;;;;;;;;;;5071245;28;20419;-69
2022/03/07 00:46:53;;;;;;;11.57;3.37;;;;;;;;;;5073453;28;20055;-69
2022/03/07 00:49:20;;;;;;;4.90;3.00;;;;;;;;;;5070944;28;20396;-69
2022/03/07 00:51:46;;;;;;;7.23;3.20;;;;;;;;;;5069823;28;20052;-69
2022/03/07 00:54:13;;;;;;;5.40;3.30;;;;;;;;;;5069392;28;20032;-68
2022/03/07 00:56:40;;;;;;;5.43;3.03;;;;;;;;;;5069610;28;20036;-69
2022/03/07 00:59:07;;;;;;;7.97;3.43;;;;;;;;;;5073355;28;20024;-69
2022/03/07 01:01:34;;;;;;;5.43;2.70;;;;;;;;;;5074302;28;20033;-69
2022/03/07 01:04:02;;;;;;;16.10;3.57;;;;;;;;;;5074911;28;20028;-69
2022/03/07 01:06:28;;;;;;;6.20;3.20;;;;;;;;;;5074513;28;20024;-69
2022/03/07 01:08:55;;;;;;;5.67;3.13;;;;;;;;;;5074274;28;20495;-70
2022/03/07 01:11:22;;;;;;;10.63;3.53;;;;;;;;;;5070473;28;20020;-70
2022/03/07 01:13:48;;;;;;;7.37;3.37;;;;;;;;;;5069359;28;20420;-69
2022/03/07 01:16:15;;;;;;;13.53;3.70;;;;;;;;;;5069657;28;20099;-70
2022/03/07 01:18:43;;;;;;;5.17;2.87;;;;;;;;;;5069192;28;20500;-72
2022/03/07 01:21:10;;;;;;;7.97;3.30;;;;;;;;;;5072287;28;20028;-70
2022/03/07 01:23:37;;;;;;;6.57;3.27;;;;;;;;;;5073694;28;20020;-69
2022/03/07 01:26:03;;;;;;;16.33;4.53;;;;;;;;;;5073939;28;20503;-69
2022/03/07 01:28:30;;;;;;;7.83;3.20;;;;;;;;;;5074712;28;20165;-70
2022/03/07 01:30:57;;;;;;;5.03;2.90;;;;;;;;;;5072029;28;20028;-70
2022/03/07 01:33:23;;;;;;;5.20;3.07;;;;;;;;;;5071117;28;20467;-70
2022/03/07 01:35:50;;;;;;;8.97;3.10;;;;;;;;;;5068727;28;20110;-67
2022/03/07 01:38:17;;;;;;;5.47;3.07;;;;;;;;;;5068837;28;20028;-65
2022/03/07 01:40:45;;;;;;;10.60;3.20;;;;;;;;;;5069127;28;20021;-66
2022/03/07 01:43:12;;;;;;;9.67;3.97;;;;;;;;;;5071334;28;20475;-64
2022/03/07 01:45:42;;;;;;;7.23;3.13;;;;;;;;;;5073670;28;20016;-63
2022/03/07 01:48:09;;;;;;;6.83;3.10;;;;;;;;;;5074194;28;20072;-64
2022/03/07 01:50:36;;;;;;;8.57;3.87;;;;;;;;;;5073736;28;20051;-65
2022/03/07 01:53:02;;;;;;;6.63;3.00;;;;;;;;;;5074098;28;20025;-64
2022/03/07 01:55:29;;;;;;;5.87;3.33;;;;;;;;;;5070261;28;20086;-65
2022/03/07 01:57:56;;;;;;;6.10;2.97;;;;;;;;;;5067407;28;20025;-64
2022/03/07 02:00:24;;;;;;;5.30;3.30;;;;;;;;;;5068484;28;20082;-66
2022/03/07 02:02:50;;;;;;;7.33;4.23;;;;;;;;;;5068572;28;20036;-64
2022/03/07 02:05:17;;;;;;;8.80;3.60;;;;;;;;;;5070896;28;20107;-69
2022/03/07 02:07:44;;;;;;;10.27;3.57;;;;;;;;;;5073254;28;20031;-70
2022/03/07 02:10:11;;;;;;;11.77;4.87;;;;;;;;;;5073082;28;20420;-70
2022/03/07 02:12:38;;;;;;;7.90;3.40;;;;;;;;;;5072685;28;20035;-66
2022/03/07 02:15:07;;;;;;;5.97;3.27;;;;;;;;;;5072640;28;20031;-67
2022/03/07 02:17:33;;;;;;;7.83;3.20;;;;;;;;;;5070322;28;20036;-68
2022/03/07 02:20:00;;;;;;;5.40;3.40;;;;;;;;;;5067958;28;20060;-67
2022/03/07 02:22:27;;;;;;;9.87;3.30;;;;;;;;;;5068067;28;20380;-69
2022/03/07 02:24:53;;;;;;;7.67;3.10;;;;;;;;;;5067748;28;20021;-68
2022/03/07 02:27:20;;;;;;;6.73;3.37;;;;;;;;;;5070537;28;20078;-64
2022/03/07 02:29:47;;;;;;;6.20;3.40;;;;;;;;;;5072192;28;20032;-64
2022/03/07 02:32:15;;;;;;;7.70;3.40;;;;;;;;;;5072354;28;20089;-66
2022/03/07 02:34:41;;;;;;;10.37;3.70;;;;;;;;;;5072977;28;20113;-65
2022/03/07 02:37:08;;;;;;;6.80;3.43;;;;;;;;;;5072886;28;20066;-66
2022/03/07 02:39:35;;;;;;;5.43;3.30;;;;;;;;;;5070029;28;20038;-66
2022/03/07 02:42:01;;;;;;;4.37;3.37;;;;;;;;;;5067570;28;20028;-68
2022/03/07 02:44:28;;;;;;;6.87;3.50;;;;;;;;;;5067978;28;20025;-69
2022/03/07 02:46:55;;;;;;;7.57;3.27;;;;;;;;;;5066953;28;20111;-68
2022/03/07 02:49:21;;;;;;;5.57;3.20;;;;;;;;;;5069022;28;20024;-65
2022/03/07 02:51:48;;;;;;;6.90;3.30;;;;;;;;;;5072624;28;20162;-66
2022/03/07 02:54:15;;;;;;;10.13;3.70;;;;;;;;;;5072409;28;20028;-65
2022/03/07 02:56:42;;;;;;;7.93;3.40;;;;;;;;;;5072424;28;20036;-65
2022/03/07 02:59:08;;;;;;;8.50;3.50;;;;;;;;;;5072628;28;20036;-65
2022/03/07 03:01:35;;;;;;;13.73;4.63;;;;;;;;;;5069769;28;20111;-65
2022/03/07 03:04:02;;;;;;;6.10;3.20;;;;;;;;;;5066723;28;20028;-66
2022/03/07 03:06:33;;;;;;;7.10;2.70;;;;;;;;;;5067046;28;20471;-67
2022/03/07 03:09:00;;;;;;;6.00;3.27;;;;;;;;;;5067458;28;20115;-66
2022/03/07 03:11:28;;;;;;;4.10;2.73;;;;;;;;;;5068673;28;20024;-66
2022/03/07 03:13:55;;;;;;;6.77;3.57;;;;;;;;;;5072401;28;20101;-66
2022/03/07 03:16:21;;;;;;;6.73;3.27;;;;;;;;;;5072310;28;20029;-66
2022/03/07 03:18:48;;;;;;;7.53;2.93;;;;;;;;;;5072061;28;20514;-66
2022/03/07 03:21:15;;;;;;;7.50;2.50;;;;;;;;;;5071304;28;20024;-67
2022/03/07 03:23:41;;;;;;;7.07;3.30;;;;;;;;;;5070061;28;20058;-68
2022/03/07 03:26:08;;;;;;;9.83;3.23;;;;;;;;;;5067026;28;20032;-66
2022/03/07 03:28:37;;;;;;;5.77;2.53;;;;;;;;;;5067299;28;20071;-70
2022/03/07 03:31:03;;;;;;;10.23;3.90;;;;;;;;;;5061986;28;20029;-70
2022/03/07 03:33:30;;;;;;;7.63;3.50;;;;;;;;;;5066128;28;20028;-72
2022/03/07 03:35:57;;;;;;;15.53;3.80;;;;;;;;;;5071386;28;20036;-69
2022/03/07 03:38:23;;;;;;;7.43;2.67;;;;;;;;;;5072006;28;20475;-65
2022/03/07 03:40:50;;;;;;;7.53;3.20;;;;;;;;;;5071880;28;20041;-65
2022/03/07 03:43:17;;;;;;;10.87;3.70;;;;;;;;;;5072198;28;20025;-65
2022/03/07 03:45:44;;;;;;;6.27;3.00;;;;;;;;;;5070846;28;20070;-65
2022/03/07 03:48:10;;;;;;;8.80;3.50;;;;;;;;;;5067182;28;20137;-65
2022/03/07 03:50:37;;;;;;;9.03;3.40;;;;;;;;;;5066959;28;20103;-65
2022/03/07 03:53:04;;;;;;;6.07;3.43;;;;;;;;;;5066704;28;20028;-65
2022/03/07 03:55:30;;;;;;;12.07;3.37;;;;;;;;;;5066900;28;20041;-66
2022/03/07 03:57:57;;;;;;;12.53;3.17;;;;;;;;;;5071774;28;20408;-65
2022/03/07 04:00:24;;;;;;;5.30;3.20;;;;;;;;;;5071417;28;20028;-65
2022/03/07 04:02:51;;;;;;;8.43;3.83;;;;;;;;;;5071636;28;20476;-65
2022/03/07 04:05:18;;;;;;;7.97;4.47;;;;;;;;;;5071212;28;20023;-66
2022/03/07 04:07:45;;;;;;;9.60;4.00;;;;;;;;;;5071217;28;20031;-66
2022/03/07 04:10:15;;;;;;;5.60;3.50;;;;;;;;;;5065635;28;20075;-62
2022/03/07 04:12:43;;;;;;;5.90;3.23;;;;;;;;;;5066839;28;20470;-65
2022/03/07 04:15:10;;;;;;;5.43;2.80;;;;;;;;;;5066369;28;20119;-68
2022/03/07 04:17:38;;;;;;;7.33;3.17;;;;;;;;;;5066894;28;20383;-65
2022/03/07 04:20:06;;;;;;;6.10;3.33;;;;;;;;;;5072400;28;20020;-68
2022/03/07 04:22:33;;;;;;;7.80;3.73;;;;;;;;;;5075188;28;20118;-66
2022/03/07 04:25:00;;;;;;;8.03;3.90;;;;;;;;;;5074716;28;20035;-66
2022/03/07 04:27:27;;;;;;;7.40;3.50;;;;;;;;;;5075479;28;20070;-67
2022/03/07 04:29:55;;;;;;;6.10;3.37;;;;;;;;;;5075594;28;20024;-67
2022/03/07 04:32:22;;;;;;;6.70;2.87;;;;;;;;;;5070039;28;20064;-68
2022/03/07 04:34:48;;;;;;;6.47;3.10;;;;;;;;;;5069457;28;20048;-68
2022/03/07 04:37:15;;;;;;;7.60;3.17;;;;;;;;;;5068946;28;20060;-68
2022/03/07 04:39:42;;;;;;;7.37;3.67;;;;;;;;;;5069576;28;20020;-67
2022/03/07 04:42:08;;;;;;;5.27;3.70;;;;;;;;;;5074320;28;20017;-67
2022/03/07 04:44:35;;;;;;;7.03;3.47;;;;;;;;;;5075368;28;20028;-67
2022/03/07 04:47:02;;;;;;;11.43;2.93;;;;;;;;;;5075048;28;20043;-68
2022/03/07 04:49:28;;;;;;;10.00;2.97;;;;;;;;;;5075001;28;20021;-68
2022/03/07 04:51:55;;;;;;;7.67;3.13;;;;;;;;;;5074666;28;20039;-67
2022/03/07 04:54:22;;;;;;;9.90;3.40;;;;;;;;;;5069731;28;20040;-67
2022/03/07 04:56:51;;;;;;;7.20;3.47;;;;;;;;;;5069712;28;20016;-68
2022/03/07 04:59:18;;;;;;;9.87;3.50;;;;;;;;;;5068458;28;20388;-67
2022/03/07 05:01:45;;;;;;;5.93;3.27;;;;;;;;;;5069153;28;20043;-68
2022/03/07 05:04:11;;;;;;;11.17;3.70;;;;;;;;;;5073762;28;20099;-68
2022/03/07 05:06:38;;;;;;;7.03;3.80;;;;;;;;;;5074434;28;20391;-68
2022/03/07 05:09:05;;;;;;;10.23;3.50;;;;;;;;;;5074666;28;20028;-68
2022/03/07 05:11:32;;;;;;;6.70;4.07;;;;;;;;;;5074455;28;20024;-68
2022/03/07 05:13:58;;;;;;;6.43;3.67;;;;;;;;;;5074662;28;20496;-68
2022/03/07 05:16:25;;;;;;;9.23;3.47;;;;;;;;;;5069410;28;20036;-68
2022/03/07 05:18:52;;;;;;;9.03;3.37;;;;;;;;;;5069714;28;20017;-68
2022/03/07 05:21:18;;;;;;;5.83;3.37;;;;;;;;;;5059748;28;20021;-68
2022/03/07 05:23:45;;;;;;;5.23;3.23;;;;;;;;;;5049248;28;20025;-67
2022/03/07 05:26:12;;;;;;;8.17;3.50;;;;;;;;;;5052869;28;20064;-68
2022/03/07 05:28:38;;;;;;;7.10;3.77;;;;;;;;;;5054426;28;20099;-68
2022/03/07 05:31:08;;;;;;;7.00;3.27;;;;;;;;;;5054496;28;20475;-68
2022/03/07 05:33:34;;;;;;;16.00;4.00;;;;;;;;;;5053055;28;20155;-68
2022/03/07 05:36:01;;;;;;;8.27;3.37;;;;;;;;;;5061523;28;20044;-68
2022/03/07 05:38:28;;;;;;;9.87;3.53;;;;;;;;;;5070603;28;20024;-68
2022/03/07 05:40:55;;;;;;;6.97;2.73;;;;;;;;;;5068789;28;20021;-68
2022/03/07 05:43:21;;;;;;;5.43;3.20;;;;;;;;;;5068248;28;20032;-68
2022/03/07 05:45:48;;;;;;;6.27;3.17;;;;;;;;;;5068745;28;20440;-68
2022/03/07 05:48:15;;;;;;;4.50;2.80;;;;;;;;;;5071780;28;20100;-68
2022/03/07 05:50:41;;;;;;;6.33;3.40;;;;;;;;;;5073926;28;20020;-67
2022/03/07 05:53:08;;;;;;;6.13;2.73;;;;;;;;;;5074153;28;20028;-68
2022/03/07 05:55:35;;;;;;;73.97;6.00;;;;;;;;;;5073769;28;20028;-68
2022/03/07 05:58:01;;;;;;;11.63;2.63;;;;;;;;;;5073697;28;20479;-68
2022/03/07 06:00:29;;;;;;;7.50;3.13;;;;;;;;;;5070009;28;20361;-67
2022/03/07 06:02:56;;;;;;;5.53;3.20;;;;;;;;;;5068797;28;20032;-68
2022/03/07 06:05:23;;;;;;;4.90;2.80;;;;;;;;;;5068284;28;20572;-68
2022/03/07 06:07:49;;;;;;;6.50;2.77;;;;;;;;;;5052367;28;20082;-68
2022/03/07 06:10:16;;;;;;;8.43;3.03;;;;;;;;;;5071049;28;20400;-68
2022/03/07 06:12:43;;;;;;;5.87;3.50;;;;;;;;;;5073149;28;20031;-69
2022/03/07 06:15:10;;;;;;;7.33;3.47;;;;;;;;;;5072564;28;20029;-68
2022/03/07 06:17:36;;;;;;;6.73;3.83;;;;;;;;;;5073349;28;20099;-68
2022/03/07 06:20:04;;;;;;;8.97;4.13;;;;;;;;;;5073767;28;20379;-68
2022/03/07 06:22:31;;;;;;;7.50;4.00;;;;;;;;;;5070334;28;20519;-68
2022/03/07 06:24:57;;;;;;;5.40;3.50;;;;;;;;;;5068646;28;20031;-68
2022/03/07 06:27:24;;;;;;;4.97;3.47;;;;;;;;;;5067834;28;20060;-69
2022/03/07 06:29:51;;;;;;;5.20;3.13;;;;;;;;;;5068475;28;20043;-68
2022/03/07 06:32:17;;;;;;;7.90;3.53;;;;;;;;;;5069252;28;20024;-69
2022/03/07 06:34:44;;;;;;;7.17;3.43;;;;;;;;;;5073111;28;20480;-67
2022/03/07 06:37:11;;;;;;;5.60;3.33;;;;;;;;;;5073059;28;20383;-68
2022/03/07 06:39:38;;;;;;;7.37;3.70;;;;;;;;;;5072777;28;20053;-68
2022/03/07 06:42:04;;;;;;;5.27;3.47;;;;;;;;;;5072865;28;20020;-68
2022/03/07 06:44:31;;;;;;;5.77;3.13;;;;;;;;;;5069902;28;20032;-68
2022/03/07 06:46:59;;;;;;;8.07;3.53;;;;;;;;;;5067781;28;20032;-68
2022/03/07 06:49:26;;;;;;;7.07;3.50;;;;;;;;;;5067431;28;20119;-68
2022/03/07 06:51:52;;;;;;;6.47;3.50;;;;;;;;;;5067427;28;20510;-68
2022/03/07 06:54:19;;;;;;;8.70;3.77;;;;;;;;;;5068621;28;20103;-68
2022/03/07 06:56:46;;;;;;;6.30;4.17;;;;;;;;;;5071902;28;20017;-68
2022/03/07 06:59:12;;;;;;;7.63;3.90;;;;;;;;;;5072453;28;20087;-68
2022/03/07 07:01:39;;;;;;;10.63;4.03;;;;;;;;;;5072037;28;20081;-68
2022/03/07 07:04:06;;;;;;;8.20;3.90;;;;;;;;;;5072800;28;20393;-68
2022/03/07 07:06:33;;;;;;;4.83;3.10;;;;;;;;;;5070895;28;20387;-68
2022/03/07 07:08:59;;;;;;;5.97;3.33;;;;;;;;;;5067029;28;20032;-68
2022/03/07 07:11:26;;;;;;;5.67;3.53;;;;;;;;;;5067253;28;20036;-68
2022/03/07 07:13:53;;;;;;;7.53;4.17;;;;;;;;;;5066947;28;20024;-68
2022/03/07 07:16:20;;;;;;;6.53;3.80;;;;;;;;;;5066870;28;20464;-68
2022/03/07 07:18:47;;;;;;;5.50;3.73;;;;;;;;;;5072582;28;20032;-68
2022/03/07 07:21:13;;;;;;;6.63;3.30;;;;;;;;;;5072343;28;20032;-67
2022/03/07 07:23:40;;;;;;;10.03;4.03;;;;;;;;;;5072273;28;20024;-67
2022/03/07 07:26:07;;;;;;;8.50;4.53;;;;;;;;;;5071139;28;20356;-68
2022/03/07 07:28:34;;;;;;;6.07;3.27;;;;;;;;;;5070914;28;20472;-68
2022/03/07 07:31:01;;;;;;;7.07;4.53;;;;;;;;;;5066849;28;20383;-68
2022/03/07 07:33:28;;;;;;;6.10;4.00;;;;;;;;;;5066993;28;20119;-68
2022/03/07 07:35:54;;;;;;;7.43;4.13;;;;;;;;;;5066665;28;20478;-68
2022/03/07 07:38:24;;;;;;;7.37;3.97;;;;;;;;;;5066771;28;20024;-67
2022/03/07 07:40:51;;;;;;;7.60;4.00;;;;;;;;;;5071852;28;20108;-68
2022/03/07 07:43:18;;;;;;;7.13;3.53;;;;;;;;;;5071761;28;20035;-67
2022/03/07 07:45:45;;;;;;;6.17;3.53;;;;;;;;;;5071594;28;20024;-67
2022/03/07 07:48:12;;;;;;;6.23;3.80;;;;;;;;;;5071775;28;20099;-68
2022/03/07 07:50:38;;;;;;;6.27;3.30;;;;;;;;;;5071714;28;20380;-68
2022/03/07 07:53:06;;;;;;;7.43;3.70;;;;;;;;;;5066947;28;20103;-68
2022/03/07 07:55:33;;;;;;;7.40;3.47;;;;;;;;;;5066962;28;20391;-67
2022/03/07 07:58:00;;;;;;;6.93;4.03;;;;;;;;;;5070826;28;20035;-68
2022/03/07 08:00:27;;;;;;;6.00;3.93;;;;;;;;;;5070697;28;20048;-68
2022/03/07 08:02:54;;;;;;;5.80;3.80;;;;;;;;;;5075538;28;20055;-67
2022/03/07 08:05:21;;;;;;;5.97;3.57;;;;;;;;;;5075333;28;20024;-68
2022/03/07 08:07:47;;;;;;;6.53;4.00;;;;;;;;;;5075795;28;20024;-68
2022/03/07 08:10:15;;;;;;;5.53;3.00;;;;;;;;;;5075686;28;20103;-67
2022/03/07 08:12:42;;;;;;;5.90;3.33;;;;;;;;;;5075529;28;20099;-67
2022/03/07 08:15:12;;;;;;;6.57;3.13;;;;;;;;;;5070532;28;20032;-67
2022/03/07 08:17:40;;;;;;;8.90;3.50;;;;;;;;;;5085786;28;20029;-68
2022/03/07 08:20:07;;;;;;;4.90;3.37;;;;;;;;;;5070245;28;20384;-68
2022/03/07 08:22:33;;;;;;;6.43;3.80;;;;;;;;;;5070078;28;20032;-68
2022/03/07 08:25:00;;;;;;;6.03;3.50;;;;;;;;;;5074919;28;20067;-67
2022/03/07 08:27:27;;;;;;;7.57;3.50;;;;;;;;;;5075540;28;20028;-68
2022/03/07 08:29:53;;;;;;;9.17;4.20;;;;;;;;;;5075254;28;20029;-67
2022/03/07 08:32:20;;;;;;;7.23;3.53;;;;;;;;;;5075073;28;20025;-67
2022/03/07 08:34:47;;;;;;;7.90;3.53;;;;;;;;;;5075261;28;20123;-67
2022/03/07 08:37:13;;;;;;;8.93;4.33;;;;;;;;;;5070425;28;20021;-68
2022/03/07 08:39:40;;;;;;;5.67;3.37;;;;;;;;;;5069710;28;20028;-67
2022/03/07 08:42:07;;;;;;;6.80;3.10;;;;;;;;;;5069807;28;20025;-68
2022/03/07 08:44:34;;;;;;;6.67;3.63;;;;;;;;;;5069982;28;20032;-68
2022/03/07 08:47:01;;;;;;;4.67;2.83;;;;;;;;;;5073643;28;20025;-67
2022/03/07 08:49:27;;;;;;;7.83;3.27;;;;;;;;;;5074837;28;20024;-67
2022/03/07 08:51:54;;;;;;;4.53;2.93;;;;;;;;;;5075072;28;20035;-67
2022/03/07 08:54:21;;;;;;;7.27;3.07;;;;;;;;;;5074239;28;20110;-67
2022/03/07 08:56:47;;;;;;;5.10;3.03;;;;;;;;;;5074435;28;20531;-67
2022/03/07 08:59:14;;;;;;;5.93;3.30;;;;;;;;;;5070455;28;20372;-67
2022/03/07 09:01:41;;;;;;;6.93;3.13;;;;;;;;;;5069955;28;20120;-67
2022/03/07 09:04:07;;;;;;;5.40;3.60;;;;;;;;;;5069572;28;20056;-67
2022/03/07 09:06:34;;;;;;;5.27;3.20;;;;;;;;;;5069319;28;20502;-67
2022/03/07 09:09:01;;;;;;;7.80;3.13;;;;;;;;;;5072610;28;20380;-67
2022/03/07 09:11:28;;;;;;;4.50;3.17;;;;;;;;;;5074088;28;20357;-67
2022/03/07 09:13:54;;;;;;;5.63;3.30;;;;;;;;;;5075702;28;20032;-67
2022/03/07 09:16:21;;;;;;;4.80;3.17;;;;;;;;;;5074801;28;20039;-67
2022/03/07 09:18:48;;;;;;;4.10;2.70;;;;;;;;;;5074735;28;20032;-67
2022/03/07 09:21:15;;;;;;;4.77;2.80;;;;;;;;;;5071011;28;20398;-67
2022/03/07 09:23:42;;;;;;;5.83;3.10;;;;;;;;;;5068973;28;20031;-67
2022/03/07 09:26:09;;;;;;;5.70;3.20;;;;;;;;;;5069300;28;20052;-67
2022/03/07 09:28:36;;;;;;;5.57;3.47;;;;;;;;;;5068714;28;20441;-67
2022/03/07 09:31:03;;;;;;;5.43;3.13;;;;;;;;;;5071847;28;20051;-67
2022/03/07 09:33:30;;;;;;;3.90;2.63;;;;;;;;;;5074376;28;20021;-67
2022/03/07 09:35:56;;;;;;;6.77;2.87;;;;;;;;;;5074238;28;20533;-67
2022/03/07 09:38:23;;;;;;;5.63;3.00;;;;;;;;;;5074239;28;20020;-67
2022/03/07 09:40:52;;;;;;;6.03;3.07;;;;;;;;;;5073700;28;20471;-68
2022/03/07 09:43:19;;;;;;;6.70;3.23;;;;;;;;;;5070865;28;20476;-67
2022/03/07 09:45:45;;;;;;;6.80;3.30;;;;;;;;;;5068825;28;20019;-67
2022/03/07 09:48:13;;;;;;;6.23;3.83;;;;;;;;;;5084361;28;20600;-66
2022/03/07 09:50:40;;;;;;;7.23;3.20;;;;;;;;;;5068792;28;20479;-67
2022/03/07 09:53:08;;;;;;;6.20;3.37;;;;;;;;;;5070540;28;20035;-68
2022/03/07 09:55:35;;;;;;;5.33;2.77;;;;;;;;;;5073684;28;20498;-66
2022/03/07 09:58:02;;;;;;;8.43;3.10;;;;;;;;;;5073962;28;20091;-66
2022/03/07 10:00:29;;;;;;;5.57;3.07;;;;;;;;;;5072971;28;20476;-67
2022/03/07 10:02:57;;;;;;;5.20;2.80;;;;;;;;;;5073687;28;20027;-67
2022/03/07 10:05:34;;;;;;;5.20;2.93;;;;;;;;;;5070879;28;20027;-67
2022/03/07 10:08:00;;;;;;;4.33;2.50;;;;;;;;;;5068710;28;20031;-67
2022/03/07 10:10:31;;;;;;;5.23;2.90;;;;;;;;;;5068387;28;20388;-68
2022/03/07 10:13:02;;;;;;;6.07;2.83;;;;;;;;;;5068122;28;20026;-67
2022/03/07 10:15:29;;;;;;;3.70;2.13;;;;;;;;;;5070549;28;20084;-67
2022/03/07 10:17:56;;;;;;;6.83;2.93;;;;;;;;;;5073412;28;20056;-67
2022/03/07 10:20:24;;;;;;;4.93;2.60;;;;;;;;;;5072411;28;20029;-67
2022/03/07 10:22:55;;;;;;;5.17;2.77;;;;;;;;;;5073322;28;20111;-67
2022/03/07 10:25:26;;;;;;;7.07;2.40;;;;;;;;;;5073341;28;20424;-67
2022/03/07 10:27:53;;;;;;;6.47;3.30;;;;;;;;;;5069991;28;20032;-67
2022/03/07 10:30:21;;;;;;;6.03;2.80;;;;;;;;;;5068284;28;20036;-67
2022/03/07 10:33:00;;;;;;;4.30;2.70;;;;;;;;;;5067926;28;20063;-67
2022/03/07 10:35:28;;;;;;;6.27;3.80;;;;;;;;;;5067837;28;20036;-67
2022/03/07 10:37:59;;;;;;;5.27;2.67;;;;;;;;;;5070720;28;20257;-67
2022/03/07 10:40:26;;;;;;;4.20;2.30;;;;;;;;;;5072983;28;20025;-66
2022/03/07 10:42:53;;;;;;;3.60;2.03;;;;;;;;;;5073310;28;20031;-66
2022/03/07 10:45:21;;;;;;;8.10;3.20;;;;;;;;;;5072602;28;20261;-67
2022/03/07 10:47:52;;;;;;;4.87;2.90;;;;;;;;;;5073034;28;20257;-67
2022/03/07 10:50:20;;;;;;;6.23;2.90;;;;;;;;;;5069033;28;20024;-67
2022/03/07 10:52:46;;;;;;;5.13;2.73;;;;;;;;;;5067176;28;20268;-67
2022/03/07 10:55:14;;;;;;;5.93;2.97;;;;;;;;;;5067349;28;20351;-67
2022/03/07 10:57:42;;;;;;;4.30;2.23;;;;;;;;;;5067600;28;20477;-66
2022/03/07 11:00:10;;;;;;;4.10;2.40;;;;;;;;;;5069897;28;20770;-67
2022/03/07 11:02:38;;;;;;;4.30;2.60;;;;;;;;;;5072414;28;20269;-66
2022/03/07 11:05:07;;;;;;;5.57;2.70;;;;;;;;;;5072464;28;20254;-66
2022/03/07 11:07:35;;;;;;;4.63;2.67;;;;;;;;;;5071872;28;20265;-66
2022/03/07 11:10:02;;;;;;;6.07;2.90;;;;;;;;;;5072679;28;20258;-66
2022/03/07 11:12:28;;;;;;;5.40;2.90;;;;;;;;;;5069275;28;20752;-66
2022/03/07 11:14:58;;;;;;;4.50;2.50;;;;;;;;;;5066802;28;20293;-66
2022/03/07 11:17:25;;;;;;;4.20;2.63;;;;;;;;;;5067030;28;20763;-66
2022/03/07 11:19:54;;;;;;;5.13;3.07;;;;;;;;;;5067170;28;20280;-66
2022/03/07 11:22:21;;;;;;;4.77;2.83;;;;;;;;;;5069483;28;20257;-66
2022/03/07 11:24:48;;;;;;;4.20;2.60;;;;;;;;;;5072351;28;20307;-66
2022/03/07 11:27:17;;;;;;;4.23;2.50;;;;;;;;;;5072128;28;20771;-66
2022/03/07 11:29:44;;;;;;;4.87;2.77;;;;;;;;;;5072182;28;20261;-66
2022/03/07 11:32:11;;;;;;;4.53;2.10;;;;;;;;;;5072311;28;20258;-66
2022/03/07 11:34:39;;;;;;;6.60;2.70;;;;;;;;;;5068821;28;20324;-67
2022/03/07 11:37:18;;;;;;;4.20;2.53;;;;;;;;;;5067296;28;20319;-66
2022/03/07 11:39:45;;;;;;;4.27;2.37;;;;;;;;;;5066640;28;20273;-66
2022/03/07 11:42:13;;;;;;;5.70;3.00;;;;;;;;;;5066178;28;20291;-66
2022/03/07 11:44:42;;;;;;;4.03;2.30;;;;;;;;;;5069763;28;20257;-66
2022/03/07 11:47:13;;;;;;;6.17;3.03;;;;;;;;;;5072242;28;20258;-66
2022/03/07 11:49:40;;;;;;;4.67;2.90;;;;;;;;;;5071750;28;20314;-66
2022/03/07 11:52:10;;;;;;;4.47;2.47;;;;;;;;;;5072035;28;20261;-66
2022/03/07 11:54:57;;;;;;;4.97;2.97;;;;;;;;;;5071840;28;20384;-66
2022/03/07 11:57:34;;;;;;;6.50;3.00;;;;;;;;;;5067025;28;20257;-66
2022/03/07 12:00:35;;;;;;;6.47;3.33;;;;;;;;;;5066065;28;20269;-66
2022/03/07 12:03:12;;;;;;;6.27;2.50;;;;;;;;;;5062894;28;20288;-66
2022/03/07 12:05:40;;;;;;;5.13;2.70;;;;;;;;;;5066351;28;20261;-66
2022/03/07 12:08:08;;;;;;;4.33;2.57;;;;;;;;;;5071979;28;20303;-66
2022/03/07 12:10:35;;;;;;;8.50;3.03;;;;;;;;;;5071765;28;20266;-66
2022/03/07 12:13:19;;;;;;;4.03;2.47;;;;;;;;;;5071926;28;20258;-66
2022/03/07 12:15:48;;;;;;;6.87;3.10;;;;;;;;;;5071430;28;20339;-66
2022/03/07 12:18:15;;;;;;;7.73;3.10;;;;;;;;;;5069708;28;20356;-66
2022/03/07 12:20:55;;;;;;;14.23;4.67;;;;;;;;;;5066475;28;20628;-66
2022/03/07 12:23:23;;;;;;;6.37;2.60;;;;;;;;;;5066578;28;20258;-66
2022/03/07 12:26:00;;;;;;;7.00;3.20;;;;;;;;;;5066095;28;20395;-66
2022/03/07 12:28:29;;;;;;;4.73;2.90;;;;;;;;;;5067568;28;20311;-66
2022/03/07 12:30:56;;;;;;;5.00;3.07;;;;;;;;;;5071513;28;20296;-66
2022/03/07 12:33:22;;;;;;;6.73;3.50;;;;;;;;;;5071791;28;20276;-66
2022/03/07 12:35:49;;;;;;;7.23;3.63;;;;;;;;;;5070990;28;20287;-66
2022/03/07 12:38:16;;;;;;;9.00;3.37;;;;;;;;;;5071730;28;20268;-66
2022/03/07 12:40:42;;;;;;;11.77;5.07;;;;;;;;;;5069547;28;20273;-66
2022/03/07 12:43:10;;;;;;;10.20;4.13;;;;;;;;;;5068410;28;20348;-66
2022/03/07 12:45:45;;;;;;;7.87;5.07;;;;;;;;;;5069587;28;20261;-66
2022/03/07 12:48:12;;;;;;;8.53;4.97;;;;;;;;;;5070006;28;20782;-66
2022/03/07 12:50:39;;;;;;;6.30;3.80;;;;;;;;;;5071326;28;20257;-66
2022/03/07 12:53:05;;;;;;;10.13;4.70;;;;;;;;;;5074998;28;20269;-66
2022/03/07 12:55:35;;;;;;;7.57;4.03;;;;;;;;;;5074905;28;20748;-65
2022/03/07 12:58:02;;;;;;;7.67;3.97;;;;;;;;;;5074706;28;20269;-66
2022/03/07 13:00:30;;;;;;;12.23;4.40;;;;;;;;;;5074248;28;20269;-65
2022/03/07 13:02:58;;;;;;;7.43;3.90;;;;;;;;;;5073215;28;20261;-65
2022/03/07 13:05:26;;;;;;;7.37;2.97;;;;;;;;;;5069522;28;20327;-65
2022/03/07 13:07:57;;;;;;;9.57;4.30;;;;;;;;;;5069282;28;20350;-65
2022/03/07 13:10:24;;;;;;;10.63;4.27;;;;;;;;;;5070662;28;20303;-66
2022/03/07 13:12:58;;;;;;;8.07;4.40;;;;;;;;;;5070758;28;20315;-65
2022/03/07 13:15:27;;;;;;;9.37;3.27;;;;;;;;;;5074584;28;20300;-65
2022/03/07 13:18:02;;;;;;;8.57;3.40;;;;;;;;;;5074708;28;20250;-65
2022/03/07 13:20:29;;;;;;;8.52;3.90;;;;;;;;;;5074622;28;20265;-65
2022/03/07 13:22:58;;;;;;;8.80;4.13;;;;;;;;;;5074086;28;20476;-65
2022/03/07 13:25:25;;;;;;;11.50;4.33;;;;;;;;;;5071925;28;20352;-65
2022/03/07 13:27:51;;;;;;;12.80;4.10;;;;;;;;;;5069652;28;20265;-65
2022/03/07 13:30:18;;;;;;;17.33;4.93;;;;;;;;;;5068809;28;20605;-66
2022/03/07 13:32:45;;;;;;;15.90;5.37;;;;;;;;;;5069065;28;20276;-65
2022/03/07 13:35:22;;;;;;;10.67;4.33;;;;;;;;;;5070695;28;20293;-65
2022/03/07 13:37:49;;;;;;;16.97;4.77;;;;;;;;;;5074155;28;20269;-65
2022/03/07 13:40:19;;;;;;;8.70;4.50;;;;;;;;;;5073718;28;20273;-66
2022/03/07 13:42:47;;;;;;;6.70;4.23;;;;;;;;;;5074503;28;20663;-65
2022/03/07 13:45:15;;;;;;;15.53;3.93;;;;;;;;;;5074080;28;20261;-65
2022/03/07 13:47:43;;;;;;;7.90;3.83;;;;;;;;;;5071313;28;20348;-66
2022/03/07 13:50:11;;;;;;;6.40;2.60;;;;;;;;;;5068856;28;20032;-66
2022/03/07 13:52:42;;;;;;;7.63;3.73;;;;;;;;;;5069029;28;20024;-66
2022/03/07 13:55:10;;;;;;;7.23;3.00;;;;;;;;;;5067589;28;20048;-66
2022/03/07 13:57:37;;;;;;;7.03;2.53;;;;;;;;;;5070864;28;20028;-65
2022/03/07 14:00:08;;;;;;;5.33;2.63;;;;;;;;;;5073445;28;20021;-66
2022/03/07 14:02:48;;;;;;;7.13;3.10;;;;;;;;;;5073819;28;20107;-65
2022/03/07 14:05:15;;;;;;;9.67;4.10;;;;;;;;;;5073397;28;20032;-66
2022/03/07 14:07:43;;;;;;;9.87;4.07;;;;;;;;;;5073301;28;20476;-66
2022/03/07 14:10:16;;;;;;;14.03;5.00;;;;;;;;;;5070612;28;20028;-66
2022/03/07 14:12:49;;;;;;;12.27;4.10;;;;;;;;;;5068186;28;20036;-67
2022/03/07 14:15:16;;;;;;;8.47;4.40;;;;;;;;;;5067301;28;20040;-66
2022/03/07 14:17:43;;;;;;;11.90;3.60;;;;;;;;;;5067837;28;20426;-66
2022/03/07 14:20:11;;;;;;;14.63;3.80;;;;;;;;;;5070728;28;20376;-67
2022/03/07 14:22:38;;;;;;;11.47;3.30;;;;;;;;;;5073515;28;20471;-66
2022/03/07 14:25:06;;;;;;;5.77;2.67;;;;;;;;;;5073004;28;20040;-66
2022/03/07 14:27:34;;;;;;;16.57;3.43;;;;;;;;;;5073345;28;20485;-66
2022/03/07 14:30:03;;;;;;;8.20;3.10;;;;;;;;;;5072582;28;20074;-67
2022/03/07 14:32:30;;;;;;;7.47;3.60;;;;;;;;;;5070087;28;20016;-66
2022/03/07 14:34:57;;;;;;;8.37;3.97;;;;;;;;;;5068041;28;20059;-66
2022/03/07 14:37:24;;;;;;;6.83;3.27;;;;;;;;;;5068022;28;20017;-66
2022/03/07 14:39:52;;;;;;;8.83;2.90;;;;;;;;;;5068186;28;20028;-66
2022/03/07 14:42:19;;;;;;;5.47;3.03;;;;;;;;;;5070391;28;20023;-67